sensor_id;sensor_type;location;lat;lon;timestamp;P1;durP1;ratioP1;P2;durP2;ratioP2
19969;SDS011;10146;47.754;9.566;2023-06-24T00:00:58;5.68;;;5.07;;
19969;SDS011;10146;47.754;9.566;2023-06-24T00:03:23;5.70;;;4.93;;
19969;SDS011;10146;47.754;9.566;2023-06-24T00:05:49;5.60;;;5.10;;
19969;SDS011;10146;47.754;9.566;2023-06-24T00:08:18;7.57;;;5.43;;
19969;SDS011;10146;47.754;9.566;2023-06-24T00:10:46;5.03;;;4.57;;
19969;SDS011;10146;47.754;9.566;2023-06-24T00:13:12;7.50;;;5.03;;
19969;SDS011;10146;47.754;9.566;2023-06-24T00:15:39;5.85;;;5.05;;
19969;SDS011;10146;47.754;9.566;2023-06-24T00:18:11;5.63;;;5.10;;
19969;SDS011;10146;47.754;9.566;2023-06-24T00:20:37;6.13;;;5.15;;
19969;SDS011;10146;47.754;9.566;2023-06-24T00:23:03;5.47;;;4.97;;
19969;SDS011;10146;47.754;9.566;2023-06-24T00:25:29;5.63;;;5.13;;
19969;SDS011;10146;47.754;9.566;2023-06-24T00:27:55;6.03;;;5.22;;
19969;SDS011;10146;47.754;9.566;2023-06-24T00:30:21;6.50;;;5.75;;
19969;SDS011;10146;47.754;9.566;2023-06-24T00:32:48;8.00;;;4.72;;
19969;SDS011;10146;47.754;9.566;2023-06-24T00:35:14;5.65;;;5.13;;
19969;SDS011;10146;47.754;9.566;2023-06-24T00:37:40;5.45;;;4.95;;
19969;SDS011;10146;47.754;9.566;2023-06-24T00:40:10;5.70;;;5.05;;
19969;SDS011;10146;47.754;9.566;2023-06-24T00:42:36;8.73;;;5.35;;
19969;SDS011;10146;47.754;9.566;2023-06-24T00:45:03;7.90;;;5.15;;
19969;SDS011;10146;47.754;9.566;2023-06-24T00:47:30;7.85;;;5.30;;
19969;SDS011;10146;47.754;9.566;2023-06-24T00:49:56;5.63;;;5.13;;
19969;SDS011;10146;47.754;9.566;2023-06-24T00:52:22;5.90;;;5.32;;
19969;SDS011;10146;47.754;9.566;2023-06-24T00:54:48;5.68;;;5.15;;
19969;SDS011;10146;47.754;9.566;2023-06-24T00:57:14;6.65;;;5.20;;
19969;SDS011;10146;47.754;9.566;2023-06-24T00:59:42;5.75;;;5.15;;
19969;SDS011;10146;47.754;9.566;2023-06-24T01:02:10;7.30;;;5.82;;
19969;SDS011;10146;47.754;9.566;2023-06-24T01:04:37;5.78;;;4.97;;
19969;SDS011;10146;47.754;9.566;2023-06-24T01:07:03;5.78;;;5.18;;
19969;SDS011;10146;47.754;9.566;2023-06-24T01:09:30;5.53;;;5.03;;
19969;SDS011;10146;47.754;9.566;2023-06-24T01:11:56;6.20;;;5.60;;
19969;SDS011;10146;47.754;9.566;2023-06-24T01:14:22;6.45;;;5.18;;
19969;SDS011;10146;47.754;9.566;2023-06-24T01:25:20;6.18;;;5.28;;
19969;SDS011;10146;47.754;9.566;2023-06-24T01:28:17;5.72;;;5.10;;
19969;SDS011;10146;47.754;9.566;2023-06-24T01:33:37;5.80;;;5.20;;
19969;SDS011;10146;47.754;9.566;2023-06-24T01:36:12;6.32;;;4.80;;
19969;SDS011;10146;47.754;9.566;2023-06-24T01:39:15;6.50;;;5.65;;
19969;SDS011;10146;47.754;9.566;2023-06-24T01:41:35;5.85;;;4.82;;
19969;SDS011;10146;47.754;9.566;2023-06-24T01:44:05;5.80;;;5.30;;
19969;SDS011;10146;47.754;9.566;2023-06-24T01:46:35;6.28;;;5.43;;
19969;SDS011;10146;47.754;9.566;2023-06-24T01:49:02;8.02;;;5.22;;
19969;SDS011;10146;47.754;9.566;2023-06-24T01:51:31;5.90;;;5.18;;
19969;SDS011;10146;47.754;9.566;2023-06-24T01:54:02;6.18;;;5.57;;
19969;SDS011;10146;47.754;9.566;2023-06-24T01:56:33;5.93;;;5.38;;
19969;SDS011;10146;47.754;9.566;2023-06-24T01:59:01;6.07;;;5.47;;
19969;SDS011;10146;47.754;9.566;2023-06-24T02:01:29;6.10;;;5.50;;
19969;SDS011;10146;47.754;9.566;2023-06-24T02:04:00;6.05;;;5.45;;
19969;SDS011;10146;47.754;9.566;2023-06-24T02:06:28;6.40;;;5.53;;
19969;SDS011;10146;47.754;9.566;2023-06-24T02:08:55;5.93;;;5.32;;
19969;SDS011;10146;47.754;9.566;2023-06-24T02:11:23;7.30;;;5.45;;
19969;SDS011;10146;47.754;9.566;2023-06-24T02:13:51;6.15;;;5.55;;
19969;SDS011;10146;47.754;9.566;2023-06-24T02:16:20;6.50;;;5.90;;
19969;SDS011;10146;47.754;9.566;2023-06-24T02:18:46;6.85;;;5.80;;
19969;SDS011;10146;47.754;9.566;2023-06-24T02:21:14;6.43;;;5.57;;
19969;SDS011;10146;47.754;9.566;2023-06-24T02:23:43;6.93;;;5.05;;
19969;SDS011;10146;47.754;9.566;2023-06-24T02:26:09;6.97;;;5.55;;
19969;SDS011;10146;47.754;9.566;2023-06-24T02:28:36;6.28;;;5.78;;
19969;SDS011;10146;47.754;9.566;2023-06-24T02:31:02;5.47;;;4.97;;
19969;SDS011;10146;47.754;9.566;2023-06-24T02:33:29;5.75;;;5.07;;
19969;SDS011;10146;47.754;9.566;2023-06-24T02:35:55;6.22;;;5.63;;
19969;SDS011;10146;47.754;9.566;2023-06-24T02:38:20;6.97;;;5.50;;
19969;SDS011;10146;47.754;9.566;2023-06-24T02:40:46;5.82;;;5.28;;
19969;SDS011;10146;47.754;9.566;2023-06-24T02:43:14;6.15;;;5.55;;
19969;SDS011;10146;47.754;9.566;2023-06-24T02:45:40;7.03;;;6.32;;
19969;SDS011;10146;47.754;9.566;2023-06-24T02:48:06;6.25;;;5.65;;
19969;SDS011;10146;47.754;9.566;2023-06-24T02:50:35;6.75;;;6.15;;
19969;SDS011;10146;47.754;9.566;2023-06-24T02:53:02;5.43;;;4.93;;
19969;SDS011;10146;47.754;9.566;2023-06-24T02:55:29;8.10;;;5.53;;
19969;SDS011;10146;47.754;9.566;2023-06-24T02:57:56;6.30;;;5.70;;
19969;SDS011;10146;47.754;9.566;2023-06-24T03:00:22;7.20;;;6.50;;
19969;SDS011;10146;47.754;9.566;2023-06-24T03:02:49;6.40;;;5.80;;
19969;SDS011;10146;47.754;9.566;2023-06-24T03:05:15;7.10;;;6.40;;
19969;SDS011;10146;47.754;9.566;2023-06-24T03:07:41;7.07;;;6.35;;
19969;SDS011;10146;47.754;9.566;2023-06-24T03:10:08;7.68;;;5.28;;
19969;SDS011;10146;47.754;9.566;2023-06-24T03:12:35;6.43;;;5.70;;
19969;SDS011;10146;47.754;9.566;2023-06-24T03:15:01;8.70;;;5.82;;
19969;SDS011;10146;47.754;9.566;2023-06-24T03:17:27;6.68;;;5.95;;
19969;SDS011;10146;47.754;9.566;2023-06-24T03:19:53;7.05;;;6.35;;
19969;SDS011;10146;47.754;9.566;2023-06-24T03:22:18;7.50;;;6.28;;
19969;SDS011;10146;47.754;9.566;2023-06-24T03:24:44;9.30;;;6.47;;
19969;SDS011;10146;47.754;9.566;2023-06-24T03:27:10;6.35;;;5.72;;
19969;SDS011;10146;47.754;9.566;2023-06-24T03:29:36;11.02;;;6.43;;
19969;SDS011;10146;47.754;9.566;2023-06-24T03:32:01;7.03;;;6.32;;
19969;SDS011;10146;47.754;9.566;2023-06-24T03:34:27;6.90;;;6.30;;
19969;SDS011;10146;47.754;9.566;2023-06-24T03:36:53;7.57;;;6.75;;
19969;SDS011;10146;47.754;9.566;2023-06-24T03:39:19;7.00;;;6.30;;
19969;SDS011;10146;47.754;9.566;2023-06-24T03:41:45;6.28;;;5.68;;
19969;SDS011;10146;47.754;9.566;2023-06-24T03:44:11;7.57;;;6.90;;
19969;SDS011;10146;47.754;9.566;2023-06-24T03:46:37;7.13;;;6.40;;
19969;SDS011;10146;47.754;9.566;2023-06-24T03:49:02;7.18;;;6.47;;
19969;SDS011;10146;47.754;9.566;2023-06-24T03:51:28;6.50;;;5.80;;
19969;SDS011;10146;47.754;9.566;2023-06-24T03:53:54;6.32;;;5.70;;
19969;SDS011;10146;47.754;9.566;2023-06-24T03:56:20;6.43;;;5.80;;
19969;SDS011;10146;47.754;9.566;2023-06-24T03:58:45;6.95;;;6.25;;
19969;SDS011;10146;47.754;9.566;2023-06-24T04:01:11;6.53;;;5.65;;
19969;SDS011;10146;47.754;9.566;2023-06-24T04:03:37;6.78;;;6.00;;
19969;SDS011;10146;47.754;9.566;2023-06-24T04:06:02;6.18;;;5.63;;
19969;SDS011;10146;47.754;9.566;2023-06-24T04:08:28;6.50;;;5.90;;
19969;SDS011;10146;47.754;9.566;2023-06-24T04:10:57;6.88;;;5.75;;
19969;SDS011;10146;47.754;9.566;2023-06-24T04:13:28;6.47;;;5.80;;
19969;SDS011;10146;47.754;9.566;2023-06-24T04:15:54;7.38;;;6.68;;
19969;SDS011;10146;47.754;9.566;2023-06-24T04:18:19;8.35;;;5.85;;
19969;SDS011;10146;47.754;9.566;2023-06-24T04:20:45;8.27;;;6.10;;
19969;SDS011;10146;47.754;9.566;2023-06-24T04:23:11;6.57;;;5.90;;
19969;SDS011;10146;47.754;9.566;2023-06-24T04:25:39;6.55;;;5.80;;
19969;SDS011;10146;47.754;9.566;2023-06-24T04:28:05;6.80;;;5.82;;
19969;SDS011;10146;47.754;9.566;2023-06-24T04:30:31;6.93;;;6.20;;
19969;SDS011;10146;47.754;9.566;2023-06-24T04:32:57;7.53;;;6.38;;
19969;SDS011;10146;47.754;9.566;2023-06-24T04:35:23;6.65;;;6.05;;
19969;SDS011;10146;47.754;9.566;2023-06-24T04:37:49;7.15;;;6.28;;
19969;SDS011;10146;47.754;9.566;2023-06-24T04:40:16;7.20;;;6.38;;
19969;SDS011;10146;47.754;9.566;2023-06-24T04:42:43;7.22;;;6.55;;
19969;SDS011;10146;47.754;9.566;2023-06-24T04:45:09;6.45;;;5.80;;
19969;SDS011;10146;47.754;9.566;2023-06-24T04:47:35;6.80;;;5.68;;
19969;SDS011;10146;47.754;9.566;2023-06-24T04:50:01;6.68;;;5.97;;
19969;SDS011;10146;47.754;9.566;2023-06-24T04:52:27;6.95;;;6.35;;
19969;SDS011;10146;47.754;9.566;2023-06-24T04:54:52;6.45;;;5.85;;
19969;SDS011;10146;47.754;9.566;2023-06-24T04:57:31;6.47;;;5.88;;
19969;SDS011;10146;47.754;9.566;2023-06-24T04:59:59;6.28;;;5.68;;
19969;SDS011;10146;47.754;9.566;2023-06-24T05:02:25;6.43;;;5.80;;
19969;SDS011;10146;47.754;9.566;2023-06-24T05:04:52;6.25;;;5.65;;
19969;SDS011;10146;47.754;9.566;2023-06-24T05:07:18;6.25;;;5.72;;
19969;SDS011;10146;47.754;9.566;2023-06-24T05:09:47;6.60;;;5.68;;
19969;SDS011;10146;47.754;9.566;2023-06-24T05:12:14;6.05;;;5.45;;
19969;SDS011;10146;47.754;9.566;2023-06-24T05:14:40;6.15;;;5.15;;
19969;SDS011;10146;47.754;9.566;2023-06-24T05:17:05;6.40;;;5.80;;
19969;SDS011;10146;47.754;9.566;2023-06-24T05:19:31;7.05;;;5.43;;
19969;SDS011;10146;47.754;9.566;2023-06-24T05:21:57;8.13;;;6.20;;
19969;SDS011;10146;47.754;9.566;2023-06-24T05:24:23;7.00;;;5.53;;
19969;SDS011;10146;47.754;9.566;2023-06-24T05:26:49;6.15;;;4.80;;
19969;SDS011;10146;47.754;9.566;2023-06-24T05:29:16;5.85;;;4.75;;
19969;SDS011;10146;47.754;9.566;2023-06-24T05:31:42;6.00;;;4.97;;
19969;SDS011;10146;47.754;9.566;2023-06-24T05:34:08;6.82;;;5.35;;
19969;SDS011;10146;47.754;9.566;2023-06-24T05:36:34;6.07;;;5.13;;
19969;SDS011;10146;47.754;9.566;2023-06-24T05:39:00;6.13;;;5.03;;
19969;SDS011;10146;47.754;9.566;2023-06-24T05:41:26;5.40;;;4.90;;
19969;SDS011;10146;47.754;9.566;2023-06-24T05:44:07;5.75;;;5.03;;
19969;SDS011;10146;47.754;9.566;2023-06-24T05:46:36;4.97;;;4.47;;
19969;SDS011;10146;47.754;9.566;2023-06-24T05:49:02;4.88;;;4.40;;
19969;SDS011;10146;47.754;9.566;2023-06-24T05:51:28;4.88;;;4.43;;
19969;SDS011;10146;47.754;9.566;2023-06-24T05:53:54;4.55;;;4.15;;
19969;SDS011;10146;47.754;9.566;2023-06-24T05:56:20;5.07;;;4.57;;
19969;SDS011;10146;47.754;9.566;2023-06-24T05:58:47;5.78;;;4.70;;
19969;SDS011;10146;47.754;9.566;2023-06-24T06:01:13;6.35;;;4.65;;
19969;SDS011;10146;47.754;9.566;2023-06-24T06:03:39;4.60;;;4.22;;
19969;SDS011;10146;47.754;9.566;2023-06-24T06:06:04;6.20;;;4.38;;
19969;SDS011;10146;47.754;9.566;2023-06-24T06:08:30;5.18;;;4.00;;
19969;SDS011;10146;47.754;9.566;2023-06-24T06:10:56;4.53;;;4.18;;
19969;SDS011;10146;47.754;9.566;2023-06-24T06:13:21;4.97;;;4.47;;
19969;SDS011;10146;47.754;9.566;2023-06-24T06:15:47;4.32;;;3.92;;
19969;SDS011;10146;47.754;9.566;2023-06-24T06:18:13;5.53;;;3.85;;
19969;SDS011;10146;47.754;9.566;2023-06-24T06:20:38;5.03;;;4.07;;
19969;SDS011;10146;47.754;9.566;2023-06-24T06:23:04;5.90;;;3.65;;
19969;SDS011;10146;47.754;9.566;2023-06-24T06:25:29;4.70;;;4.07;;
19969;SDS011;10146;47.754;9.566;2023-06-24T06:27:55;4.30;;;4.00;;
19969;SDS011;10146;47.754;9.566;2023-06-24T06:30:21;4.72;;;4.32;;
19969;SDS011;10146;47.754;9.566;2023-06-24T06:32:46;5.18;;;3.95;;
19969;SDS011;10146;47.754;9.566;2023-06-24T06:35:12;4.35;;;3.95;;
19969;SDS011;10146;47.754;9.566;2023-06-24T06:37:37;4.35;;;3.95;;
19969;SDS011;10146;47.754;9.566;2023-06-24T06:40:03;5.10;;;4.50;;
19969;SDS011;10146;47.754;9.566;2023-06-24T06:42:29;4.50;;;4.10;;
19969;SDS011;10146;47.754;9.566;2023-06-24T06:44:55;5.13;;;3.88;;
19969;SDS011;10146;47.754;9.566;2023-06-24T06:47:21;4.53;;;4.13;;
19969;SDS011;10146;47.754;9.566;2023-06-24T06:49:46;4.30;;;3.90;;
19969;SDS011;10146;47.754;9.566;2023-06-24T06:52:12;4.60;;;4.05;;
19969;SDS011;10146;47.754;9.566;2023-06-24T06:54:37;4.65;;;3.90;;
19969;SDS011;10146;47.754;9.566;2023-06-24T06:57:03;4.50;;;3.80;;
19969;SDS011;10146;47.754;9.566;2023-06-24T06:59:30;3.90;;;3.60;;
19969;SDS011;10146;47.754;9.566;2023-06-24T07:01:56;4.03;;;3.67;;
19969;SDS011;10146;47.754;9.566;2023-06-24T07:04:22;4.35;;;3.42;;
19969;SDS011;10146;47.754;9.566;2023-06-24T07:06:47;3.92;;;3.63;;
19969;SDS011;10146;47.754;9.566;2023-06-24T07:09:13;3.88;;;3.42;;
19969;SDS011;10146;47.754;9.566;2023-06-24T07:11:40;4.10;;;3.45;;
19969;SDS011;10146;47.754;9.566;2023-06-24T07:14:06;5.20;;;3.78;;
19969;SDS011;10146;47.754;9.566;2023-06-24T07:16:31;3.75;;;3.22;;
19969;SDS011;10146;47.754;9.566;2023-06-24T07:18:57;4.35;;;3.53;;
19969;SDS011;10146;47.754;9.566;2023-06-24T07:21:23;6.10;;;4.10;;
19969;SDS011;10146;47.754;9.566;2023-06-24T07:23:48;8.52;;;4.10;;
19969;SDS011;10146;47.754;9.566;2023-06-24T07:26:14;5.25;;;3.78;;
19969;SDS011;10146;47.754;9.566;2023-06-24T07:28:39;5.68;;;4.20;;
19969;SDS011;10146;47.754;9.566;2023-06-24T07:31:05;5.53;;;4.53;;
19969;SDS011;10146;47.754;9.566;2023-06-24T07:33:31;5.32;;;4.45;;
19969;SDS011;10146;47.754;9.566;2023-06-24T07:35:56;7.53;;;4.65;;
19969;SDS011;10146;47.754;9.566;2023-06-24T07:38:22;5.22;;;4.47;;
19969;SDS011;10146;47.754;9.566;2023-06-24T07:40:48;5.70;;;4.55;;
19969;SDS011;10146;47.754;9.566;2023-06-24T07:43:14;4.90;;;4.50;;
19969;SDS011;10146;47.754;9.566;2023-06-24T07:45:39;5.25;;;4.75;;
19969;SDS011;10146;47.754;9.566;2023-06-24T07:48:05;7.97;;;5.10;;
19969;SDS011;10146;47.754;9.566;2023-06-24T07:50:32;7.45;;;5.32;;
19969;SDS011;10146;47.754;9.566;2023-06-24T07:52:59;24.63;;;6.55;;
19969;SDS011;10146;47.754;9.566;2023-06-24T07:55:24;9.70;;;5.00;;
19969;SDS011;10146;47.754;9.566;2023-06-24T07:57:50;7.88;;;5.28;;
19969;SDS011;10146;47.754;9.566;2023-06-24T08:00:16;5.57;;;5.03;;
19969;SDS011;10146;47.754;9.566;2023-06-24T08:02:42;5.10;;;4.60;;
19969;SDS011;10146;47.754;9.566;2023-06-24T08:05:08;8.25;;;4.72;;
19969;SDS011;10146;47.754;9.566;2023-06-24T08:07:39;5.10;;;4.70;;
19969;SDS011;10146;47.754;9.566;2023-06-24T08:10:05;4.82;;;4.43;;
19969;SDS011;10146;47.754;9.566;2023-06-24T08:12:31;5.07;;;4.57;;
19969;SDS011;10146;47.754;9.566;2023-06-24T08:14:56;7.30;;;4.80;;
19969;SDS011;10146;47.754;9.566;2023-06-24T08:17:22;7.63;;;4.80;;
19969;SDS011;10146;47.754;9.566;2023-06-24T08:19:48;7.00;;;4.80;;
19969;SDS011;10146;47.754;9.566;2023-06-24T08:22:14;6.47;;;4.47;;
19969;SDS011;10146;47.754;9.566;2023-06-24T08:24:40;6.35;;;5.18;;
19969;SDS011;10146;47.754;9.566;2023-06-24T08:27:06;4.90;;;4.50;;
19969;SDS011;10146;47.754;9.566;2023-06-24T08:29:33;5.70;;;5.03;;
19969;SDS011;10146;47.754;9.566;2023-06-24T08:31:59;6.43;;;4.22;;
19969;SDS011;10146;47.754;9.566;2023-06-24T08:34:25;6.05;;;4.75;;
19969;SDS011;10146;47.754;9.566;2023-06-24T08:36:50;5.25;;;4.78;;
19969;SDS011;10146;47.754;9.566;2023-06-24T08:39:16;9.95;;;6.93;;
19969;SDS011;10146;47.754;9.566;2023-06-24T08:41:41;7.60;;;5.13;;
19969;SDS011;10146;47.754;9.566;2023-06-24T08:44:07;8.57;;;5.53;;
19969;SDS011;10146;47.754;9.566;2023-06-24T08:46:33;5.43;;;4.93;;
19969;SDS011;10146;47.754;9.566;2023-06-24T08:49:46;5.57;;;5.18;;
19969;SDS011;10146;47.754;9.566;2023-06-24T08:51:46;6.00;;;5.25;;
19969;SDS011;10146;47.754;9.566;2023-06-24T08:54:25;5.28;;;4.78;;
19969;SDS011;10146;47.754;9.566;2023-06-24T08:56:52;4.95;;;4.57;;
19969;SDS011;10146;47.754;9.566;2023-06-24T08:59:18;6.38;;;4.80;;
19969;SDS011;10146;47.754;9.566;2023-06-24T09:01:48;8.52;;;4.97;;
19969;SDS011;10146;47.754;9.566;2023-06-24T09:04:15;7.95;;;4.93;;
19969;SDS011;10146;47.754;9.566;2023-06-24T09:06:41;11.75;;;4.85;;
19969;SDS011;10146;47.754;9.566;2023-06-24T09:09:16;6.63;;;5.10;;
19969;SDS011;10146;47.754;9.566;2023-06-24T09:11:52;7.30;;;4.93;;
19969;SDS011;10146;47.754;9.566;2023-06-24T09:14:19;8.20;;;4.88;;
19969;SDS011;10146;47.754;9.566;2023-06-24T09:16:54;10.25;;;4.65;;
19969;SDS011;10146;47.754;9.566;2023-06-24T09:19:25;5.30;;;4.80;;
19969;SDS011;10146;47.754;9.566;2023-06-24T09:21:55;8.43;;;4.82;;
19969;SDS011;10146;47.754;9.566;2023-06-24T09:24:26;4.85;;;4.28;;
19969;SDS011;10146;47.754;9.566;2023-06-24T09:26:55;10.68;;;4.85;;
19969;SDS011;10146;47.754;9.566;2023-06-24T09:29:25;5.25;;;4.65;;
19969;SDS011;10146;47.754;9.566;2023-06-24T09:32:03;11.20;;;4.82;;
19969;SDS011;10146;47.754;9.566;2023-06-24T09:34:30;4.28;;;3.88;;
19969;SDS011;10146;47.754;9.566;2023-06-24T09:36:57;12.82;;;4.28;;
19969;SDS011;10146;47.754;9.566;2023-06-24T09:39:23;27.30;;;5.07;;
19969;SDS011;10146;47.754;9.566;2023-06-24T09:41:57;5.10;;;4.13;;
19969;SDS011;10146;47.754;9.566;2023-06-24T09:44:23;7.10;;;4.60;;
19969;SDS011;10146;47.754;9.566;2023-06-24T09:46:50;12.73;;;4.63;;
19969;SDS011;10146;47.754;9.566;2023-06-24T09:49:17;6.13;;;4.05;;
19969;SDS011;10146;47.754;9.566;2023-06-24T09:51:44;11.02;;;4.57;;
19969;SDS011;10146;47.754;9.566;2023-06-24T09:54:11;5.05;;;3.55;;
19969;SDS011;10146;47.754;9.566;2023-06-24T09:56:40;4.80;;;3.97;;
19969;SDS011;10146;47.754;9.566;2023-06-24T09:59:12;3.85;;;3.40;;
19969;SDS011;10146;47.754;9.566;2023-06-24T10:01:40;6.03;;;4.00;;
19969;SDS011;10146;47.754;9.566;2023-06-24T10:04:08;4.03;;;3.70;;
19969;SDS011;10146;47.754;9.566;2023-06-24T10:06:37;4.38;;;3.53;;
19969;SDS011;10146;47.754;9.566;2023-06-24T10:09:03;7.32;;;3.70;;
19969;SDS011;10146;47.754;9.566;2023-06-24T10:11:30;3.38;;;3.08;;
19969;SDS011;10146;47.754;9.566;2023-06-24T10:13:55;4.78;;;3.67;;
19969;SDS011;10146;47.754;9.566;2023-06-24T10:16:21;4.78;;;3.90;;
19969;SDS011;10146;47.754;9.566;2023-06-24T10:18:47;5.15;;;3.30;;
19969;SDS011;10146;47.754;9.566;2023-06-24T10:21:14;6.18;;;3.78;;
19969;SDS011;10146;47.754;9.566;2023-06-24T10:37:02;4.18;;;3.80;;
19969;SDS011;10146;47.754;9.566;2023-06-24T10:39:54;4.13;;;3.70;;
19969;SDS011;10146;47.754;9.566;2023-06-24T10:42:27;5.32;;;3.67;;
19969;SDS011;10146;47.754;9.566;2023-06-24T10:44:54;4.10;;;3.70;;
19969;SDS011;10146;47.754;9.566;2023-06-24T10:47:24;7.28;;;3.85;;
19969;SDS011;10146;47.754;9.566;2023-06-24T10:49:51;3.78;;;3.47;;
19969;SDS011;10146;47.754;9.566;2023-06-24T10:52:20;3.80;;;3.45;;
19969;SDS011;10146;47.754;9.566;2023-06-24T10:54:47;7.78;;;3.53;;
19969;SDS011;10146;47.754;9.566;2023-06-24T10:57:14;5.30;;;3.55;;
19969;SDS011;10146;47.754;9.566;2023-06-24T10:59:46;5.00;;;3.70;;
19969;SDS011;10146;47.754;9.566;2023-06-24T11:02:13;5.97;;;3.83;;
19969;SDS011;10146;47.754;9.566;2023-06-24T11:04:49;4.20;;;3.58;;
19969;SDS011;10146;47.754;9.566;2023-06-24T11:07:19;4.28;;;3.80;;
19969;SDS011;10146;47.754;9.566;2023-06-24T11:09:52;7.25;;;4.05;;
19969;SDS011;10146;47.754;9.566;2023-06-24T11:12:26;5.20;;;3.92;;
19969;SDS011;10146;47.754;9.566;2023-06-24T11:14:56;3.40;;;3.10;;
19969;SDS011;10146;47.754;9.566;2023-06-24T11:17:23;4.03;;;3.63;;
19969;SDS011;10146;47.754;9.566;2023-06-24T11:19:49;4.57;;;3.78;;
19969;SDS011;10146;47.754;9.566;2023-06-24T11:22:15;3.83;;;3.53;;
19969;SDS011;10146;47.754;9.566;2023-06-24T11:24:41;11.65;;;4.40;;
19969;SDS011;10146;47.754;9.566;2023-06-24T11:27:07;4.85;;;3.70;;
19969;SDS011;10146;47.754;9.566;2023-06-24T11:29:33;7.15;;;3.83;;
19969;SDS011;10146;47.754;9.566;2023-06-24T11:32:00;4.80;;;4.07;;
19969;SDS011;10146;47.754;9.566;2023-06-24T11:34:27;7.00;;;3.75;;
19969;SDS011;10146;47.754;9.566;2023-06-24T11:36:53;4.55;;;3.60;;
19969;SDS011;10146;47.754;9.566;2023-06-24T11:39:25;3.70;;;3.40;;
19969;SDS011;10146;47.754;9.566;2023-06-24T11:41:52;4.05;;;3.65;;
19969;SDS011;10146;47.754;9.566;2023-06-24T11:44:19;6.32;;;5.70;;
19969;SDS011;10146;47.754;9.566;2023-06-24T11:46:45;5.03;;;4.38;;
19969;SDS011;10146;47.754;9.566;2023-06-24T11:49:11;4.45;;;3.88;;
19969;SDS011;10146;47.754;9.566;2023-06-24T11:51:37;4.50;;;4.10;;
19969;SDS011;10146;47.754;9.566;2023-06-24T11:54:13;4.95;;;4.55;;
19969;SDS011;10146;47.754;9.566;2023-06-24T11:56:41;4.55;;;3.58;;
19969;SDS011;10146;47.754;9.566;2023-06-24T11:59:20;5.28;;;3.80;;
19969;SDS011;10146;47.754;9.566;2023-06-24T12:01:52;3.63;;;3.42;;
19969;SDS011;10146;47.754;9.566;2023-06-24T12:04:21;5.68;;;4.20;;
19969;SDS011;10146;47.754;9.566;2023-06-24T12:06:53;4.78;;;4.20;;
19969;SDS011;10146;47.754;9.566;2023-06-24T12:09:18;6.07;;;5.50;;
19969;SDS011;10146;47.754;9.566;2023-06-24T12:11:44;4.00;;;3.55;;
19969;SDS011;10146;47.754;9.566;2023-06-24T12:14:10;4.35;;;3.90;;
19969;SDS011;10146;47.754;9.566;2023-06-24T12:16:35;4.78;;;3.67;;
19969;SDS011;10146;47.754;9.566;2023-06-24T12:19:01;3.95;;;3.60;;
19969;SDS011;10146;47.754;9.566;2023-06-24T12:21:27;4.10;;;3.80;;
19969;SDS011;10146;47.754;9.566;2023-06-24T12:23:53;5.00;;;3.72;;
19969;SDS011;10146;47.754;9.566;2023-06-24T12:26:18;4.32;;;3.92;;
19969;SDS011;10146;47.754;9.566;2023-06-24T12:28:44;4.78;;;3.90;;
19969;SDS011;10146;47.754;9.566;2023-06-24T12:31:10;3.80;;;3.50;;
19969;SDS011;10146;47.754;9.566;2023-06-24T12:33:36;4.47;;;4.07;;
19969;SDS011;10146;47.754;9.566;2023-06-24T12:36:01;3.95;;;3.55;;
19969;SDS011;10146;47.754;9.566;2023-06-24T12:38:27;6.53;;;3.58;;
19969;SDS011;10146;47.754;9.566;2023-06-24T12:40:53;3.83;;;3.53;;
19969;SDS011;10146;47.754;9.566;2023-06-24T12:43:18;4.40;;;4.00;;
19969;SDS011;10146;47.754;9.566;2023-06-24T12:45:44;5.60;;;3.90;;
19969;SDS011;10146;47.754;9.566;2023-06-24T12:48:10;4.00;;;3.60;;
19969;SDS011;10146;47.754;9.566;2023-06-24T12:50:36;4.05;;;3.63;;
19969;SDS011;10146;47.754;9.566;2023-06-24T12:53:02;3.85;;;3.55;;
19969;SDS011;10146;47.754;9.566;2023-06-24T12:55:28;4.55;;;3.60;;
19969;SDS011;10146;47.754;9.566;2023-06-24T12:57:54;6.05;;;3.67;;
19969;SDS011;10146;47.754;9.566;2023-06-24T13:00:20;5.05;;;3.83;;
19969;SDS011;10146;47.754;9.566;2023-06-24T13:02:47;4.57;;;3.90;;
19969;SDS011;10146;47.754;9.566;2023-06-24T13:05:13;3.50;;;3.20;;
19969;SDS011;10146;47.754;9.566;2023-06-24T13:07:39;4.32;;;3.50;;
19969;SDS011;10146;47.754;9.566;2023-06-24T13:10:05;4.00;;;3.70;;
19969;SDS011;10146;47.754;9.566;2023-06-24T13:12:31;3.85;;;3.55;;
19969;SDS011;10146;47.754;9.566;2023-06-24T13:14:57;3.80;;;3.50;;
19969;SDS011;10146;47.754;9.566;2023-06-24T13:17:23;4.30;;;3.97;;
19969;SDS011;10146;47.754;9.566;2023-06-24T13:19:49;4.10;;;3.70;;
19969;SDS011;10146;47.754;9.566;2023-06-24T13:22:15;3.80;;;3.50;;
19969;SDS011;10146;47.754;9.566;2023-06-24T13:24:41;3.95;;;3.63;;
19969;SDS011;10146;47.754;9.566;2023-06-24T13:27:07;4.80;;;3.70;;
19969;SDS011;10146;47.754;9.566;2023-06-24T13:29:32;4.07;;;3.78;;
19969;SDS011;10146;47.754;9.566;2023-06-24T13:31:58;7.35;;;4.22;;
19969;SDS011;10146;47.754;9.566;2023-06-24T13:34:24;4.25;;;3.95;;
19969;SDS011;10146;47.754;9.566;2023-06-24T13:36:49;3.70;;;3.40;;
19969;SDS011;10146;47.754;9.566;2023-06-24T13:39:15;4.22;;;3.90;;
19969;SDS011;10146;47.754;9.566;2023-06-24T13:41:46;4.88;;;3.70;;
19969;SDS011;10146;47.754;9.566;2023-06-24T13:44:12;4.25;;;3.85;;
19969;SDS011;10146;47.754;9.566;2023-06-24T13:46:38;3.88;;;3.50;;
19969;SDS011;10146;47.754;9.566;2023-06-24T13:49:03;4.20;;;3.75;;
19969;SDS011;10146;47.754;9.566;2023-06-24T13:51:29;4.47;;;3.88;;
19969;SDS011;10146;47.754;9.566;2023-06-24T13:53:55;4.55;;;4.15;;
19969;SDS011;10146;47.754;9.566;2023-06-24T13:56:21;3.88;;;3.58;;
19969;SDS011;10146;47.754;9.566;2023-06-24T13:58:49;4.30;;;3.90;;
19969;SDS011;10146;47.754;9.566;2023-06-24T14:01:15;4.00;;;3.70;;
19969;SDS011;10146;47.754;9.566;2023-06-24T14:03:41;4.22;;;3.83;;
19969;SDS011;10146;47.754;9.566;2023-06-24T14:06:07;4.60;;;4.20;;
19969;SDS011;10146;47.754;9.566;2023-06-24T14:08:33;4.68;;;4.00;;
19969;SDS011;10146;47.754;9.566;2023-06-24T14:10:59;4.47;;;4.10;;
19969;SDS011;10146;47.754;9.566;2023-06-24T14:13:26;4.20;;;3.90;;
19969;SDS011;10146;47.754;9.566;2023-06-24T14:15:52;4.30;;;4.00;;
19969;SDS011;10146;47.754;9.566;2023-06-24T14:18:18;4.38;;;3.97;;
19969;SDS011;10146;47.754;9.566;2023-06-24T14:20:44;4.70;;;4.18;;
19969;SDS011;10146;47.754;9.566;2023-06-24T14:23:10;5.10;;;3.80;;
19969;SDS011;10146;47.754;9.566;2023-06-24T14:25:35;4.25;;;3.92;;
19969;SDS011;10146;47.754;9.566;2023-06-24T14:28:02;4.35;;;3.95;;
19969;SDS011;10146;47.754;9.566;2023-06-24T14:30:31;4.53;;;4.13;;
19969;SDS011;10146;47.754;9.566;2023-06-24T14:32:57;5.32;;;3.80;;
19969;SDS011;10146;47.754;9.566;2023-06-24T14:35:23;4.22;;;3.90;;
19969;SDS011;10146;47.754;9.566;2023-06-24T14:37:48;4.90;;;3.90;;
19969;SDS011;10146;47.754;9.566;2023-06-24T14:40:14;4.13;;;3.83;;
19969;SDS011;10146;47.754;9.566;2023-06-24T14:42:39;4.30;;;4.00;;
19969;SDS011;10146;47.754;9.566;2023-06-24T14:45:05;4.25;;;3.92;;
19969;SDS011;10146;47.754;9.566;2023-06-24T14:47:31;4.13;;;3.75;;
19969;SDS011;10146;47.754;9.566;2023-06-24T14:49:57;5.07;;;4.57;;
19969;SDS011;10146;47.754;9.566;2023-06-24T14:52:22;4.47;;;4.07;;
19969;SDS011;10146;47.754;9.566;2023-06-24T14:54:48;4.07;;;3.78;;
19969;SDS011;10146;47.754;9.566;2023-06-24T14:57:14;8.73;;;4.13;;
19969;SDS011;10146;47.754;9.566;2023-06-24T14:59:41;4.40;;;3.92;;
19969;SDS011;10146;47.754;9.566;2023-06-24T15:02:06;4.35;;;3.95;;
19969;SDS011;10146;47.754;9.566;2023-06-24T15:04:32;4.38;;;4.03;;
19969;SDS011;10146;47.754;9.566;2023-06-24T15:06:59;4.50;;;4.10;;
19969;SDS011;10146;47.754;9.566;2023-06-24T15:09:25;4.00;;;3.70;;
19969;SDS011;10146;47.754;9.566;2023-06-24T15:11:50;4.18;;;3.88;;